Asiatic Wave — 9V8790 — position and weather

sailwx.info

Track history (hours):
 
Tides and Currents Weather Stations Pressure Air Temp Water Temp Dewpoint Dewpoint Depression Visibility Wind Speed Wind Dir Waves Ship Positions

Asiatic Wave

Last reported at 2015-Aug-30 09:33 UTC. Time now 2015-Aug-30 09:54 UTC.
Position N 31°18' E 121°46'.

Length 150 m; draft 7 m.

Type: Ship (hazmat cat A). MMSI: 564211000.

Date/timePositionNaut miles runAvg speedWind from/ knotsBaromVisibWave heightAir tempDewpointWater temp
2015-Aug-30 09:33N 31°18' E 121°46'1111.2
2015-Aug-30 08:33N 31°15' E 121°58'1211.6
2015-Aug-30 07:33N 31°11' E 122°11'1312.4
2015-Aug-30 06:33N 31°06' E 122°25'  
2015-Aug-27 09:07N 34°55' E 139°23'1016.6
2015-Aug-27 08:33N 35°01' E 139°33'1616.4
2015-Aug-27 07:33N 35°13' E 139°46'1111.0
2015-Aug-27 06:33N 35°23' E 139°42'4 3.4
2015-Aug-27 05:31N 35°27' E 139°41'0 0.0
2015-Aug-27 04:31N 35°27' E 139°41'0 0.0
2015-Aug-27 03:31N 35°27' E 139°41'0 0.0
2015-Aug-27 02:33N 35°27' E 139°41'0 0.0
2015-Aug-27 01:33N 35°27' E 139°41'0 0.0
2015-Aug-27 00:32N 35°27' E 139°41'0 0.0
2015-Aug-26 23:32N 35°27' E 139°41'0 0.0
2015-Aug-26 22:33N 35°27' E 139°41'2 1.6
2015-Aug-26 21:33N 35°26' E 139°43'7 6.7
2015-Aug-26 20:33N 35°29' E 139°50'7 7.4
2015-Aug-26 19:33N 35°36' E 139°47'0 0.2
2015-Aug-26 18:32N 35°36' E 139°48'0 0.0
2015-Aug-26 17:32N 35°36' E 139°48'0 0.0
2015-Aug-26 16:31N 35°36' E 139°48'0 0.0
2015-Aug-26 15:31N 35°36' E 139°48'0 0.0
2015-Aug-26 14:33N 35°36' E 139°48'0 0.0
2015-Aug-26 13:33N 35°36' E 139°48'0 0.0
2015-Aug-26 12:32N 35°36' E 139°48'0 0.0
2015-Aug-26 11:29N 35°36' E 139°48'0 0.0
2015-Aug-26 10:32N 35°36' E 139°48'0 0.0
2015-Aug-26 09:31N 35°36' E 139°48'0 0.0
2015-Aug-26 08:31N 35°36' E 139°48'0 0.0
2015-Aug-26 07:33N 35°36' E 139°48'0 0.0
2015-Aug-26 06:33N 35°36' E 139°48'0 0.0
2015-Aug-26 05:32N 35°36' E 139°48'0 0.0
2015-Aug-26 04:33N 35°36' E 139°48'0 0.0
2015-Aug-26 03:32N 35°36' E 139°48'1 0.8
2015-Aug-26 02:34N 35°35' E 139°47'8 7.7
2015-Aug-26 01:34N 35°28' E 139°51'1211.7
2015-Aug-26 00:33N 35°17' E 139°45'1110.5
2015-Aug-25 23:33N 35°07' E 139°47'1010.1
2015-Aug-25 22:33N 34°58' E 139°41'9 8.6
2015-Aug-25 21:33N 34°50' E 139°36'  
2015-Aug-23 00:33N 31°05' E 122°30'1414.1
2015-Aug-22 23:33N 31°09' E 122°14'1312.9
2015-Aug-22 22:33N 31°15' E 122°01'1514.8
2015-Aug-22 21:33N 31°19' E 121°44'4 3.6
2015-Aug-22 20:33N 31°20' E 121°40'0 0.0
2015-Aug-22 19:33N 31°20' E 121°40'0 0.0
2015-Aug-22 18:32N 31°20' E 121°40'0 0.0
2015-Aug-22 17:33N 31°20' E 121°40'0 0.0
2015-Aug-22 16:33N 31°20' E 121°40'0 0.0
2015-Aug-22 15:32N 31°20' E 121°40'0 0.1
2015-Aug-22 14:32N 31°20' E 121°40'0 0.1
2015-Aug-22 13:31N 31°20' E 121°40'0 0.0
2015-Aug-22 12:31N 31°20' E 121°40'0 0.0
2015-Aug-22 11:33N 31°20' E 121°40'0 0.0
2015-Aug-22 10:33N 31°20' E 121°40'0 0.1
2015-Aug-22 09:34N 31°20' E 121°40'7 6.6
2015-Aug-22 08:33N 31°16' E 121°46'1413.5
2015-Aug-22 07:33N 31°07' E 121°58'1312.7
2015-Aug-22 06:33N 31°03' E 122°12'9 9.4
2015-Aug-22 05:33N 31°02' E 122°23'  
Track history (hours):
 
Tides and Currents Weather Stations Pressure Air Temp Water Temp Dewpoint Dewpoint Depression Visibility Wind Speed Wind Dir Waves Ship Positions

Asiatic Wave

Last reported at 2015-Aug-30 09:33 UTC. Time now 2015-Aug-30 09:54 UTC.
Position N 31°18' E 121°46'.

Length 150 m; draft 7 m.

Type: Ship (hazmat cat A). MMSI: 564211000.

Date/timePositionNaut miles runAvg speedWind from/ knotsBaromVisibWave heightAir tempDewpointWater temp
2015-Aug-30 09:33N 31°18' E 121°46'1111.2
2015-Aug-30 08:33N 31°15' E 121°58'1211.6
2015-Aug-30 07:33N 31°11' E 122°11'1312.4
2015-Aug-30 06:33N 31°06' E 122°25'  
2015-Aug-27 09:07N 34°55' E 139°23'1016.6
2015-Aug-27 08:33N 35°01' E 139°33'1616.4
2015-Aug-27 07:33N 35°13' E 139°46'1111.0
2015-Aug-27 06:33N 35°23' E 139°42'4 3.4
2015-Aug-27 05:31N 35°27' E 139°41'0 0.0
2015-Aug-27 04:31N 35°27' E 139°41'0 0.0
2015-Aug-27 03:31N 35°27' E 139°41'0 0.0
2015-Aug-27 02:33N 35°27' E 139°41'0 0.0
2015-Aug-27 01:33N 35°27' E 139°41'0 0.0
2015-Aug-27 00:32N 35°27' E 139°41'0 0.0
2015-Aug-26 23:32N 35°27' E 139°41'0 0.0
2015-Aug-26 22:33N 35°27' E 139°41'2 1.6
2015-Aug-26 21:33N 35°26' E 139°43'7 6.7
2015-Aug-26 20:33N 35°29' E 139°50'7 7.4
2015-Aug-26 19:33N 35°36' E 139°47'0 0.2
2015-Aug-26 18:32N 35°36' E 139°48'0 0.0
2015-Aug-26 17:32N 35°36' E 139°48'0 0.0
2015-Aug-26 16:31N 35°36' E 139°48'0 0.0
2015-Aug-26 15:31N 35°36' E 139°48'0 0.0
2015-Aug-26 14:33N 35°36' E 139°48'0 0.0
2015-Aug-26 13:33N 35°36' E 139°48'0 0.0
2015-Aug-26 12:32N 35°36' E 139°48'0 0.0
2015-Aug-26 11:29N 35°36' E 139°48'0 0.0
2015-Aug-26 10:32N 35°36' E 139°48'0 0.0
2015-Aug-26 09:31N 35°36' E 139°48'0 0.0
2015-Aug-26 08:31N 35°36' E 139°48'0 0.0
2015-Aug-26 07:33N 35°36' E 139°48'0 0.0
2015-Aug-26 06:33N 35°36' E 139°48'0 0.0
2015-Aug-26 05:32N 35°36' E 139°48'0 0.0
2015-Aug-26 04:33N 35°36' E 139°48'0 0.0
2015-Aug-26 03:32N 35°36' E 139°48'1 0.8
2015-Aug-26 02:34N 35°35' E 139°47'8 7.7
2015-Aug-26 01:34N 35°28' E 139°51'1211.7
2015-Aug-26 00:33N 35°17' E 139°45'1110.5
2015-Aug-25 23:33N 35°07' E 139°47'1010.1
2015-Aug-25 22:33N 34°58' E 139°41'9 8.6
2015-Aug-25 21:33N 34°50' E 139°36'  
2015-Aug-23 00:33N 31°05' E 122°30'1414.1
2015-Aug-22 23:33N 31°09' E 122°14'1312.9
2015-Aug-22 22:33N 31°15' E 122°01'1514.8
2015-Aug-22 21:33N 31°19' E 121°44'4 3.6
2015-Aug-22 20:33N 31°20' E 121°40'0 0.0
2015-Aug-22 19:33N 31°20' E 121°40'0 0.0
2015-Aug-22 18:32N 31°20' E 121°40'0 0.0
2015-Aug-22 17:33N 31°20' E 121°40'0 0.0
2015-Aug-22 16:33N 31°20' E 121°40'0 0.0
2015-Aug-22 15:32N 31°20' E 121°40'0 0.1
2015-Aug-22 14:32N 31°20' E 121°40'0 0.1
2015-Aug-22 13:31N 31°20' E 121°40'0 0.0
2015-Aug-22 12:31N 31°20' E 121°40'0 0.0
2015-Aug-22 11:33N 31°20' E 121°40'0 0.0
2015-Aug-22 10:33N 31°20' E 121°40'0 0.1
2015-Aug-22 09:34N 31°20' E 121°40'7 6.6
2015-Aug-22 08:33N 31°16' E 121°46'1413.5
2015-Aug-22 07:33N 31°07' E 121°58'1312.7
2015-Aug-22 06:33N 31°03' E 122°12'9 9.4
2015-Aug-22 05:33N 31°02' E 122°23'  

Dump ship's entire track history